HBBA/BJM METAR and TAF weather

Enter ICAO airport designator
Station Type Date Time Source
HBBA METAR 2020/02/23 11:00 UTC NOAA

HBBA 231100Z 18004KT 9999 FEW030 32/21 Q1010 NOSIG


Station Type Date Time Source
HBBA Decoded METAR 2020/02/23 11:00 UTC NOAA

Bujumbura, Burundi (HBBA) 03-19S 029-19E 783M
Feb 23, 2020 - 06:00 AM EST / 2020.02.23 1100 UTC
Wind: from the S (180 degrees) at 5 MPH (4 KT):0
Visibility: greater than 7 mile(s):0
Sky conditions: mostly clear
Temperature: 89 F (32 C)
Dew Point: 69 F (21 C)
Relative Humidity: 52%
Pressure (altimeter): 29.83 in. Hg (1010 hPa)
ob: HBBA 231100Z 18004KT 9999 FEW030 32/21 Q1010 NOSIG
cycle: 11

Station Type Date Time Source
HBBA TAF 2020/02/24 06:24 UTC NOAA

TAF TAF HBBA 240500Z 2406/2512 18010G20KT 9999 FEW028 FEW030CB BKN100
TEMPO2412/2418 08015G27KT 6000 TSRA OR SHRA SCT025CB BKN100
BECMG2502/2504 36002KT 9999 FEW025 BKN100
BECMG2508/2510 18010KT 9999 FEW030 BKN100

Example: see airport list